createdAt,value
2019-03-27T00:00:09.299Z,17.20
2019-03-27T00:02:38.430Z,16.00
2019-03-27T00:05:08.268Z,17.43
2019-03-27T00:07:37.271Z,17.13
2019-03-27T00:10:08.303Z,16.57
2019-03-27T00:12:37.607Z,16.07
2019-03-27T00:15:13.271Z,19.00
2019-03-27T00:17:39.275Z,15.87
2019-03-27T00:20:09.671Z,17.27
2019-03-27T00:22:38.761Z,19.70
2019-03-27T00:25:08.329Z,16.03
2019-03-27T00:27:37.501Z,16.27
2019-03-27T00:30:08.672Z,18.63
2019-03-27T00:32:37.869Z,16.03
2019-03-27T00:35:08.603Z,16.17
2019-03-27T00:37:37.924Z,18.53
2019-03-27T00:40:07.745Z,17.73
2019-03-27T00:42:37.399Z,17.47
2019-03-27T00:45:07.717Z,16.63
2019-03-27T00:47:36.962Z,18.77
2019-03-27T00:50:06.603Z,18.07
2019-03-27T00:52:35.825Z,18.13
2019-03-27T00:55:06.335Z,15.63
2019-03-27T00:57:35.510Z,16.23
2019-03-27T01:00:08.440Z,17.47
2019-03-27T01:02:37.615Z,14.37
2019-03-27T01:05:06.905Z,19.00
2019-03-27T01:07:36.008Z,21.00
2019-03-27T01:10:05.918Z,19.90
2019-03-27T01:12:35.004Z,15.00
2019-03-27T01:15:04.372Z,20.63
2019-03-27T01:17:33.553Z,19.00
2019-03-27T01:20:03.175Z,19.33
2019-03-27T01:22:32.376Z,18.37
2019-03-27T01:25:01.482Z,18.27
2019-03-27T01:27:30.667Z,16.77
2019-03-27T01:29:59.795Z,18.33
2019-03-27T01:32:28.896Z,17.13
2019-03-27T01:34:57.992Z,17.03
2019-03-27T01:37:27.195Z,18.83
2019-03-27T01:39:56.535Z,17.03
2019-03-27T01:42:25.627Z,15.40
2019-03-27T01:44:54.723Z,23.50
2019-03-27T01:47:24.751Z,17.37
2019-03-27T01:49:53.744Z,17.37
2019-03-27T01:52:22.895Z,16.57
2019-03-27T01:54:52.114Z,17.17
2019-03-27T01:57:21.313Z,18.10
2019-03-27T01:59:50.412Z,17.13
2019-03-27T02:02:19.583Z,23.07
2019-03-27T02:04:48.683Z,19.37
2019-03-27T02:07:17.920Z,18.43
2019-03-27T02:09:46.994Z,19.93
2019-03-27T02:12:16.186Z,19.20
2019-03-27T02:14:45.303Z,15.87
2019-03-27T02:17:14.436Z,19.73
2019-03-27T02:19:43.630Z,21.63
2019-03-27T02:22:12.722Z,17.07
2019-03-27T02:24:41.899Z,21.13
2019-03-27T02:27:11.110Z,19.27
2019-03-27T02:29:40.313Z,17.37
2019-03-27T02:32:10.523Z,23.90
2019-03-27T02:34:39.598Z,18.93
2019-03-27T02:37:08.691Z,19.17
2019-03-27T02:39:37.768Z,16.57
2019-03-27T02:42:06.878Z,17.03
2019-03-27T02:44:35.991Z,17.47
2019-03-27T02:47:05.282Z,18.83
2019-03-27T02:49:34.343Z,18.23
2019-03-27T02:52:03.626Z,20.83
2019-03-27T02:54:32.849Z,18.53
2019-03-27T02:57:01.930Z,19.67
2019-03-27T02:59:31.194Z,21.63
2019-03-27T03:02:00.391Z,18.13
2019-03-27T03:04:29.594Z,20.03
2019-03-27T03:06:59.251Z,19.87
2019-03-27T03:09:28.365Z,20.50
2019-03-27T03:11:57.481Z,18.20
2019-03-27T03:14:26.665Z,17.60
2019-03-27T03:16:55.960Z,20.63
2019-03-27T03:19:25.106Z,22.17
2019-03-27T03:21:54.297Z,22.20
2019-03-27T03:24:23.485Z,21.10
2019-03-27T03:26:52.802Z,18.50
2019-03-27T03:29:21.915Z,21.47
2019-03-27T03:31:51.031Z,19.90
2019-03-27T03:34:20.412Z,21.10
2019-03-27T03:36:49.517Z,22.47
2019-03-27T03:39:18.709Z,23.13
2019-03-27T03:41:47.794Z,23.43
2019-03-27T03:44:16.901Z,26.80
2019-03-27T03:46:58.898Z,22.53
2019-03-27T03:49:17.079Z,25.20
2019-03-27T03:51:46.460Z,21.03
2019-03-27T03:54:16.273Z,24.07
2019-03-27T03:56:47.302Z,22.17
2019-03-27T03:59:17.934Z,25.30
2019-03-27T04:01:49.756Z,29.90
2019-03-27T04:04:20.580Z,29.40
2019-03-27T04:06:49.719Z,24.73
2019-03-27T04:09:18.818Z,28.63
2019-03-27T04:11:48.157Z,27.27
2019-03-27T04:14:17.391Z,26.77
2019-03-27T04:16:46.505Z,30.97
2019-03-27T04:19:15.726Z,28.73
2019-03-27T04:21:44.828Z,31.27
2019-03-27T04:24:13.973Z,30.83
2019-03-27T04:26:43.280Z,28.87
2019-03-27T04:29:12.488Z,28.93
2019-03-27T04:31:44.050Z,30.23
2019-03-27T04:34:13.162Z,34.07
2019-03-27T04:36:42.295Z,33.40
2019-03-27T04:39:11.520Z,31.10
2019-03-27T04:41:40.652Z,31.00
2019-03-27T04:44:10.000Z,30.63
2019-03-27T04:46:39.228Z,24.83
2019-03-27T04:49:08.355Z,23.07
2019-03-27T04:51:37.470Z,25.87
2019-03-27T04:54:06.729Z,24.37
2019-03-27T04:56:35.969Z,26.57
2019-03-27T04:59:05.172Z,24.37
2019-03-27T05:01:34.505Z,23.97
2019-03-27T05:04:05.194Z,24.10
2019-03-27T05:06:34.424Z,23.57
2019-03-27T05:09:04.864Z,26.20
2019-03-27T05:11:33.993Z,31.07
2019-03-27T05:14:03.219Z,24.17
2019-03-27T05:16:32.537Z,24.90
2019-03-27T05:19:01.632Z,25.07
2019-03-27T05:21:30.772Z,33.90
2019-03-27T05:24:00.008Z,32.77
2019-03-27T05:26:29.222Z,25.90
2019-03-27T05:28:58.445Z,22.73
2019-03-27T05:31:27.671Z,21.43
2019-03-27T05:33:57.046Z,21.63
2019-03-27T05:36:26.157Z,22.23
2019-03-27T05:38:55.259Z,19.27
2019-03-27T05:41:24.441Z,21.53
2019-03-27T05:43:53.654Z,21.13
2019-03-27T05:46:23.267Z,20.27
2019-03-27T05:48:54.149Z,20.00
2019-03-27T05:51:23.356Z,30.40
2019-03-27T05:53:52.580Z,25.23
2019-03-27T05:56:21.802Z,25.27
2019-03-27T05:58:51.254Z,26.67
2019-03-27T06:01:20.395Z,22.07
2019-03-27T06:03:49.621Z,24.03
2019-03-27T06:06:18.850Z,25.33
2019-03-27T06:08:48.076Z,22.80
2019-03-27T06:11:17.269Z,22.10
2019-03-27T06:13:46.474Z,22.63
2019-03-27T06:16:15.667Z,24.93
2019-03-27T06:18:44.887Z,25.63
2019-03-27T06:21:14.147Z,26.13
2019-03-27T06:23:43.694Z,25.77
2019-03-27T06:26:12.901Z,24.13
2019-03-27T06:28:42.215Z,22.53
2019-03-27T06:31:11.344Z,25.47
2019-03-27T06:33:40.447Z,22.93
2019-03-27T06:36:09.653Z,22.77
2019-03-27T06:38:38.836Z,21.53
2019-03-27T06:41:08.103Z,22.17
2019-03-27T06:43:37.311Z,22.83
2019-03-27T06:46:06.433Z,28.07
2019-03-27T06:48:35.671Z,21.57
2019-03-27T06:51:04.976Z,16.77
2019-03-27T06:53:34.117Z,15.80
2019-03-27T06:56:03.741Z,13.97
2019-03-27T06:58:33.067Z,16.20
2019-03-27T07:01:02.286Z,12.70
2019-03-27T07:03:31.519Z,14.23
2019-03-27T07:06:00.723Z,11.73
2019-03-27T07:08:29.994Z,13.93
2019-03-27T07:10:59.103Z,14.13
2019-03-27T07:13:28.319Z,15.40
2019-03-27T07:15:57.522Z,12.77
2019-03-27T07:18:39.216Z,12.07
2019-03-27T07:20:57.801Z,11.87
2019-03-27T07:23:26.950Z,15.70
2019-03-27T07:25:56.171Z,13.43
2019-03-27T07:28:25.347Z,13.30
2019-03-27T07:30:54.482Z,13.97
2019-03-27T07:33:23.594Z,14.00
2019-03-27T07:35:52.737Z,13.23
2019-03-27T07:38:22.062Z,12.23
2019-03-27T07:40:51.272Z,13.37
2019-03-27T07:43:20.373Z,15.60
2019-03-27T07:45:49.462Z,13.13
2019-03-27T07:48:18.619Z,15.33
2019-03-27T07:50:47.952Z,13.47
2019-03-27T07:53:17.262Z,13.83
2019-03-27T07:55:46.520Z,13.13
2019-03-27T07:58:15.772Z,18.17
2019-03-27T08:00:44.980Z,16.73
2019-03-27T08:03:14.203Z,20.13
2019-03-27T08:05:43.418Z,20.57
2019-03-27T08:08:12.647Z,17.57
2019-03-27T08:10:41.782Z,13.40
2019-03-27T08:13:11.019Z,16.73
2019-03-27T08:15:40.984Z,17.00
2019-03-27T08:18:10.389Z,16.17
2019-03-27T08:20:39.664Z,17.33
2019-03-27T08:23:08.856Z,20.40
2019-03-27T08:25:37.985Z,18.63
2019-03-27T08:28:07.417Z,19.13
2019-03-27T08:30:36.811Z,20.77
2019-03-27T08:33:06.108Z,17.53
2019-03-27T08:35:35.327Z,17.80
2019-03-27T08:38:04.716Z,19.13
2019-03-27T08:40:36.770Z,16.27
2019-03-27T08:43:20.319Z,17.30
2019-03-27T08:45:37.121Z,17.70
2019-03-27T08:48:06.425Z,17.30
2019-03-27T08:50:35.751Z,17.03
2019-03-27T08:53:05.065Z,17.00
2019-03-27T08:55:34.188Z,14.10
2019-03-27T08:58:03.412Z,16.13
2019-03-27T09:00:46.537Z,18.43
2019-03-27T09:03:15.872Z,15.13
2019-03-27T09:05:45.112Z,17.00
2019-03-27T09:08:14.450Z,17.37
2019-03-27T09:10:43.555Z,18.63
2019-03-27T09:13:12.757Z,21.67
2019-03-27T09:15:41.834Z,17.43
2019-03-27T09:18:11.174Z,15.70
2019-03-27T09:20:40.421Z,17.90
2019-03-27T09:23:09.703Z,17.17
2019-03-27T09:25:38.971Z,18.00
2019-03-27T09:28:08.239Z,19.87
2019-03-27T09:30:37.335Z,16.80
2019-03-27T09:33:06.658Z,16.77
2019-03-27T09:35:36.360Z,17.80
2019-03-27T09:38:05.473Z,15.80
2019-03-27T09:40:34.684Z,20.73
2019-03-27T09:43:04.036Z,15.67
2019-03-27T09:45:33.211Z,14.37
2019-03-27T09:48:02.851Z,18.57
2019-03-27T09:50:32.239Z,17.50
2019-03-27T09:53:01.340Z,14.77
2019-03-27T09:55:30.443Z,14.13
2019-03-27T09:57:59.745Z,13.67
2019-03-27T10:00:58.352Z,14.33
2019-03-27T10:03:27.799Z,13.23
2019-03-27T10:05:57.003Z,14.80
2019-03-27T10:08:26.220Z,15.33
2019-03-27T10:10:55.605Z,12.93
2019-03-27T10:13:24.902Z,13.20
2019-03-27T10:15:53.908Z,13.03
2019-03-27T10:18:23.019Z,13.37
2019-03-27T10:20:52.245Z,13.83
2019-03-27T10:23:21.594Z,12.53
2019-03-27T10:25:50.911Z,13.77
2019-03-27T10:28:20.235Z,15.53
2019-03-27T10:30:49.640Z,12.43
2019-03-27T10:33:18.977Z,14.03
2019-03-27T10:35:48.399Z,12.70
2019-03-27T10:38:17.579Z,13.73
2019-03-27T10:40:47.003Z,13.37
2019-03-27T10:43:16.238Z,15.67
2019-03-27T10:45:45.442Z,12.10
2019-03-27T10:48:14.675Z,13.17
2019-03-27T10:50:43.782Z,13.33
2019-03-27T10:53:13.035Z,12.93
2019-03-27T10:55:42.227Z,13.57
2019-03-27T10:58:11.384Z,12.03
2019-03-27T11:00:40.633Z,12.00
2019-03-27T11:03:09.815Z,16.43
2019-03-27T11:05:39.110Z,15.43
2019-03-27T11:08:11.278Z,14.37
2019-03-27T11:10:39.367Z,11.23
2019-03-27T11:13:08.554Z,14.50
2019-03-27T11:15:37.925Z,12.07
2019-03-27T11:18:07.285Z,15.37
2019-03-27T11:20:36.654Z,13.13
2019-03-27T11:23:05.776Z,14.60
2019-03-27T11:25:35.000Z,11.20
2019-03-27T11:28:04.196Z,13.83
2019-03-27T11:30:38.297Z,12.53
2019-03-27T11:33:08.444Z,14.90
2019-03-27T11:35:37.717Z,12.87
2019-03-27T11:38:06.935Z,11.87
2019-03-27T11:40:36.267Z,12.00
2019-03-27T11:43:05.659Z,12.17
2019-03-27T11:45:34.970Z,13.13
2019-03-27T11:48:07.957Z,9.30
2019-03-27T11:50:44.946Z,12.20
2019-03-27T11:53:06.958Z,11.87
2019-03-27T11:55:36.538Z,10.67
2019-03-27T11:58:05.692Z,10.50
2019-03-27T12:00:35.248Z,9.40
2019-03-27T12:03:04.401Z,11.60
2019-03-27T12:05:33.620Z,13.53
2019-03-27T12:08:02.815Z,12.47
2019-03-27T12:10:32.166Z,13.37
2019-03-27T12:13:01.456Z,14.60
2019-03-27T12:15:42.105Z,10.53
2019-03-27T12:18:13.275Z,11.77
2019-03-27T12:20:43.056Z,10.97
2019-03-27T12:23:13.096Z,11.00
2019-03-27T12:25:42.522Z,9.57
2019-03-27T12:28:11.822Z,10.37
2019-03-27T12:30:41.121Z,12.73
2019-03-27T12:33:10.495Z,11.97
2019-03-27T12:35:39.781Z,10.33
2019-03-27T12:38:08.976Z,8.73
2019-03-27T12:40:38.295Z,10.30
2019-03-27T12:43:07.984Z,11.87
2019-03-27T12:45:37.248Z,12.60
2019-03-27T12:48:06.875Z,12.30
2019-03-27T12:50:36.313Z,10.20
2019-03-27T12:53:05.635Z,11.37
2019-03-27T12:55:34.977Z,11.57
2019-03-27T12:58:04.744Z,9.80
2019-03-27T13:00:34.630Z,9.60
2019-03-27T13:03:04.541Z,10.57
2019-03-27T13:05:33.745Z,10.73
2019-03-27T13:08:03.289Z,7.10
2019-03-27T13:10:32.990Z,7.83
2019-03-27T13:13:02.406Z,8.23
2019-03-27T13:15:31.797Z,10.10
2019-03-27T13:18:01.319Z,11.27
2019-03-27T13:20:30.703Z,9.23
2019-03-27T13:22:59.961Z,11.07
2019-03-27T13:25:29.023Z,10.87
2019-03-27T13:27:58.362Z,7.47
2019-03-27T13:30:27.603Z,8.83
2019-03-27T13:32:57.208Z,10.90
2019-03-27T13:35:26.739Z,7.43
2019-03-27T13:37:56.144Z,8.30
2019-03-27T13:40:25.339Z,8.73
2019-03-27T13:42:55.192Z,11.00
2019-03-27T13:45:24.501Z,8.00
2019-03-27T13:47:53.910Z,9.57
2019-03-27T13:50:24.914Z,9.87
2019-03-27T13:52:54.197Z,9.43
2019-03-27T13:55:23.908Z,11.63
2019-03-27T13:57:53.294Z,8.53
2019-03-27T14:00:22.719Z,9.63
2019-03-27T14:02:52.324Z,9.53
2019-03-27T14:05:21.631Z,10.83
2019-03-27T14:07:50.919Z,9.33
2019-03-27T14:10:20.423Z,11.17
2019-03-27T14:12:49.913Z,9.97
2019-03-27T14:15:19.227Z,9.87
2019-03-27T14:17:48.701Z,9.73
2019-03-27T14:20:18.286Z,9.90
2019-03-27T14:22:47.667Z,10.03
2019-03-27T14:25:17.202Z,8.53
2019-03-27T14:27:46.285Z,8.53
2019-03-27T14:30:36.696Z,8.70
2019-03-27T14:33:05.827Z,8.33
2019-03-27T14:35:35.131Z,8.13
2019-03-27T14:38:04.445Z,10.30
2019-03-27T14:40:33.636Z,9.03
2019-03-27T14:43:02.885Z,9.67
2019-03-27T14:45:32.431Z,12.20
2019-03-27T14:48:01.751Z,11.90
2019-03-27T14:50:31.352Z,10.17
2019-03-27T14:53:00.535Z,9.00
2019-03-27T14:55:29.719Z,9.83
2019-03-27T14:57:58.922Z,11.17
2019-03-27T15:00:28.226Z,9.27
2019-03-27T15:02:57.719Z,11.10
2019-03-27T15:05:27.327Z,13.90
2019-03-27T15:07:57.248Z,8.73
2019-03-27T15:10:26.492Z,10.73
2019-03-27T15:12:55.730Z,10.80
2019-03-27T15:15:24.953Z,8.83
2019-03-27T15:17:54.169Z,9.80
2019-03-27T15:20:23.298Z,8.50
2019-03-27T15:22:52.742Z,8.47
2019-03-27T15:25:22.146Z,9.37
2019-03-27T15:27:51.339Z,9.23
2019-03-27T15:30:20.558Z,9.30
2019-03-27T15:32:49.948Z,9.63
2019-03-27T15:35:19.155Z,10.87
2019-03-27T15:37:48.719Z,11.00
2019-03-27T15:40:28.930Z,11.77
2019-03-27T15:42:58.458Z,13.17
2019-03-27T15:45:27.956Z,8.70
2019-03-27T15:47:57.324Z,11.40
2019-03-27T15:50:29.211Z,9.87
2019-03-27T15:52:58.412Z,12.90
2019-03-27T15:55:27.497Z,11.93
2019-03-27T15:57:57.011Z,11.30
2019-03-27T16:00:26.303Z,13.13
2019-03-27T16:02:55.680Z,10.37
2019-03-27T16:05:24.983Z,11.47
2019-03-27T16:07:54.174Z,10.77
2019-03-27T16:10:23.786Z,10.23
2019-03-27T16:12:53.076Z,14.77
2019-03-27T16:15:22.382Z,12.80
2019-03-27T16:17:51.705Z,12.40
2019-03-27T16:20:20.829Z,12.07
2019-03-27T16:22:51.247Z,17.63
2019-03-27T16:25:20.835Z,19.33
2019-03-27T16:27:49.960Z,21.40
2019-03-27T16:30:19.358Z,16.07
2019-03-27T16:32:48.645Z,14.53
2019-03-27T16:35:17.749Z,11.93
2019-03-27T16:37:46.909Z,11.80
2019-03-27T16:40:20.500Z,15.50
2019-03-27T16:42:49.799Z,15.63
2019-03-27T16:45:19.009Z,13.40
2019-03-27T16:47:48.303Z,14.57
2019-03-27T16:50:18.046Z,14.93
2019-03-27T16:52:47.247Z,12.10
2019-03-27T16:55:16.523Z,13.63
2019-03-27T16:57:45.640Z,22.23
2019-03-27T17:00:14.912Z,41.23
2019-03-27T17:02:44.009Z,71.27
2019-03-27T17:05:15.875Z,81.60
2019-03-27T17:07:45.122Z,51.53
2019-03-27T17:10:14.928Z,36.70
2019-03-27T17:12:44.160Z,53.70
2019-03-27T17:15:13.755Z,73.70
2019-03-27T17:17:42.984Z,49.40
2019-03-27T17:20:12.681Z,56.27
2019-03-27T17:22:41.799Z,33.83
2019-03-27T17:25:11.211Z,36.23
2019-03-27T17:27:40.409Z,46.13
2019-03-27T17:30:11.330Z,31.57
2019-03-27T17:32:40.828Z,38.60
2019-03-27T17:35:10.228Z,73.27
2019-03-27T17:37:39.356Z,67.60
2019-03-27T17:40:08.755Z,90.93
2019-03-27T17:42:38.291Z,50.60
2019-03-27T17:45:07.799Z,55.03
2019-03-27T17:47:37.213Z,39.13
2019-03-27T17:50:07.142Z,31.57
2019-03-27T17:52:38.158Z,26.47
2019-03-27T17:55:08.374Z,28.03
2019-03-27T17:57:37.778Z,34.57
2019-03-27T18:00:07.835Z,36.47
2019-03-27T18:02:37.154Z,39.77
2019-03-27T18:05:07.133Z,39.00
2019-03-27T18:07:37.021Z,37.43
2019-03-27T18:10:07.562Z,37.20
2019-03-27T18:12:37.067Z,38.17
2019-03-27T18:15:07.320Z,38.67
2019-03-27T18:17:36.513Z,49.57
2019-03-27T18:20:06.212Z,56.47
2019-03-27T18:22:35.444Z,43.57
2019-03-27T18:25:05.222Z,43.83
2019-03-27T18:27:34.445Z,44.40
2019-03-27T18:30:04.548Z,41.17
2019-03-27T18:32:33.929Z,38.87
2019-03-27T18:35:04.113Z,34.53
2019-03-27T18:37:33.323Z,43.37
2019-03-27T18:40:02.753Z,47.47
2019-03-27T18:42:32.236Z,49.10
2019-03-27T18:45:01.652Z,41.60
2019-03-27T18:47:31.005Z,40.13
2019-03-27T18:50:00.607Z,61.40
2019-03-27T18:52:29.811Z,89.80
2019-03-27T18:54:58.942Z,87.40
2019-03-27T18:57:28.470Z,144.27
2019-03-27T18:59:57.623Z,91.20
2019-03-27T19:02:26.978Z,62.70
2019-03-27T19:04:56.078Z,47.23
2019-03-27T19:07:25.201Z,62.13
2019-03-27T19:09:54.403Z,55.57
2019-03-27T19:12:26.785Z,50.63
2019-03-27T19:14:54.816Z,53.63
2019-03-27T19:17:24.022Z,50.50
2019-03-27T19:19:53.299Z,48.57
2019-03-27T19:22:22.427Z,52.07
2019-03-27T19:24:51.524Z,53.80
2019-03-27T19:27:21.079Z,58.37
2019-03-27T19:29:50.945Z,58.37
2019-03-27T19:32:20.144Z,65.97
2019-03-27T19:34:51.194Z,51.87
2019-03-27T19:37:20.727Z,46.00
2019-03-27T19:39:50.048Z,30.33
2019-03-27T19:42:19.160Z,37.67
2019-03-27T19:44:48.392Z,29.57
2019-03-27T19:47:17.973Z,22.00
2019-03-27T19:49:47.199Z,21.43
2019-03-27T19:52:16.440Z,20.07
2019-03-27T19:54:45.783Z,58.87
2019-03-27T19:57:15.156Z,34.90
2019-03-27T19:59:44.241Z,21.27
2019-03-27T20:02:13.453Z,18.53
2019-03-27T20:04:42.747Z,19.17
2019-03-27T20:07:11.934Z,19.73
2019-03-27T20:09:41.231Z,20.20
2019-03-27T20:12:10.406Z,18.10
2019-03-27T20:14:42.374Z,20.57
2019-03-27T20:17:10.806Z,17.50
2019-03-27T20:19:40.107Z,17.90
2019-03-27T20:22:09.575Z,18.30
2019-03-27T20:24:41.112Z,17.30
2019-03-27T20:27:09.776Z,14.73
2019-03-27T20:29:38.995Z,14.87
2019-03-27T20:32:08.284Z,14.13
2019-03-27T20:34:37.784Z,17.40
2019-03-27T20:37:07.440Z,16.03
2019-03-27T20:39:36.532Z,15.37
2019-03-27T20:42:05.743Z,16.33
2019-03-27T20:44:34.959Z,15.47
2019-03-27T20:47:04.281Z,15.53
2019-03-27T20:49:33.803Z,14.07
2019-03-27T20:52:03.017Z,14.10
2019-03-27T20:54:32.331Z,15.40
2019-03-27T20:57:01.629Z,15.77
2019-03-27T20:59:31.019Z,17.67
2019-03-27T21:02:00.097Z,18.80
2019-03-27T21:04:29.271Z,16.87
2019-03-27T21:06:58.464Z,17.17
2019-03-27T21:09:28.060Z,16.67
2019-03-27T21:11:57.248Z,16.03
2019-03-27T21:14:26.441Z,19.90
2019-03-27T21:16:55.740Z,17.27
2019-03-27T21:19:24.845Z,21.23
2019-03-27T21:21:54.043Z,22.53
2019-03-27T21:24:23.432Z,21.60
2019-03-27T21:26:52.626Z,19.30
2019-03-27T21:29:21.747Z,16.13
2019-03-27T21:31:51.043Z,19.00
2019-03-27T21:34:20.263Z,20.13
2019-03-27T21:36:49.463Z,19.33
2019-03-27T21:39:18.942Z,21.80
2019-03-27T21:41:48.050Z,18.07
2019-03-27T21:44:17.154Z,20.20
2019-03-27T21:46:46.357Z,21.60
2019-03-27T21:49:15.556Z,21.93
2019-03-27T21:51:44.644Z,21.90
2019-03-27T21:54:13.915Z,18.30
2019-03-27T21:56:42.995Z,22.67
2019-03-27T21:59:12.173Z,19.13
2019-03-27T22:01:41.301Z,21.80
2019-03-27T22:04:10.574Z,18.70
2019-03-27T22:06:39.770Z,20.17
2019-03-27T22:09:08.855Z,23.97
2019-03-27T22:11:37.954Z,20.00
2019-03-27T22:14:07.126Z,20.67
2019-03-27T22:16:36.409Z,20.23
2019-03-27T22:19:05.518Z,23.00
2019-03-27T22:21:34.615Z,23.50
2019-03-27T22:24:03.907Z,23.10
2019-03-27T22:26:33.007Z,23.40
2019-03-27T22:29:02.204Z,21.53
2019-03-27T22:31:31.398Z,24.77
2019-03-27T22:34:00.497Z,23.87
2019-03-27T22:36:29.671Z,24.40
2019-03-27T22:38:58.891Z,24.83
2019-03-27T22:41:28.081Z,26.17
2019-03-27T22:43:57.173Z,24.80
2019-03-27T22:46:26.587Z,26.77
2019-03-27T22:48:55.666Z,27.53
2019-03-27T22:51:24.822Z,24.63
2019-03-27T22:53:54.073Z,23.70
2019-03-27T22:56:23.246Z,24.40
2019-03-27T22:58:52.445Z,27.07
2019-03-27T23:01:24.415Z,27.73
2019-03-27T23:03:53.496Z,21.87
2019-03-27T23:06:22.585Z,26.80
2019-03-27T23:08:51.714Z,26.20
2019-03-27T23:11:20.928Z,24.70
2019-03-27T23:13:50.154Z,25.30
2019-03-27T23:16:19.379Z,26.33
2019-03-27T23:18:48.534Z,27.10
2019-03-27T23:21:17.871Z,24.03
2019-03-27T23:23:47.003Z,23.60
2019-03-27T23:26:16.226Z,25.37
2019-03-27T23:28:45.452Z,26.73
2019-03-27T23:31:14.676Z,29.23
2019-03-27T23:33:43.899Z,31.93
2019-03-27T23:36:13.111Z,27.60
2019-03-27T23:38:42.255Z,18.50
2019-03-27T23:41:11.280Z,23.80
2019-03-27T23:43:40.543Z,27.53
2019-03-27T23:46:09.679Z,22.10
2019-03-27T23:48:38.798Z,22.63
2019-03-27T23:51:08.039Z,21.43
2019-03-27T23:53:37.251Z,21.13
2019-03-27T23:56:16.013Z,20.93
2019-03-27T23:58:37.617Z,19.63
